sensor_id;sensor_type;location;lat;lon;timestamp;P1;durP1;ratioP1;P2;durP2;ratioP2
9789;SDS011;4934;50.852;8.098;2022-09-09T00:00:16;1.52;;;1.30;;
9789;SDS011;4934;50.852;8.098;2022-09-09T00:02:45;3.30;;;1.67;;
9789;SDS011;4934;50.852;8.098;2022-09-09T00:05:29;3.92;;;1.90;;
9789;SDS011;4934;50.852;8.098;2022-09-09T00:08:03;3.42;;;2.05;;
9789;SDS011;4934;50.852;8.098;2022-09-09T00:10:34;2.60;;;1.70;;
9789;SDS011;4934;50.852;8.098;2022-09-09T00:21:33;3.45;;;1.52;;
9789;SDS011;4934;50.852;8.098;2022-09-09T00:27:08;4.65;;;1.50;;
9789;SDS011;4934;50.852;8.098;2022-09-09T00:32:14;3.70;;;1.73;;
9789;SDS011;4934;50.852;8.098;2022-09-09T00:35:12;2.33;;;1.70;;
9789;SDS011;4934;50.852;8.098;2022-09-09T00:37:35;5.85;;;2.10;;
9789;SDS011;4934;50.852;8.098;2022-09-09T00:40:02;3.28;;;1.73;;
9789;SDS011;4934;50.852;8.098;2022-09-09T00:42:41;5.32;;;1.88;;
9789;SDS011;4934;50.852;8.098;2022-09-09T00:47:52;4.97;;;1.60;;
9789;SDS011;4934;50.852;8.098;2022-09-09T00:58:47;4.35;;;1.45;;
9789;SDS011;4934;50.852;8.098;2022-09-09T01:01:23;4.20;;;1.60;;
9789;SDS011;4934;50.852;8.098;2022-09-09T01:03:56;3.83;;;1.38;;
9789;SDS011;4934;50.852;8.098;2022-09-09T01:06:31;7.80;;;2.42;;
9789;SDS011;4934;50.852;8.098;2022-09-09T01:09:04;3.83;;;2.53;;
9789;SDS011;4934;50.852;8.098;2022-09-09T01:25:01;4.35;;;1.92;;
9789;SDS011;4934;50.852;8.098;2022-09-09T01:27:32;4.70;;;2.00;;
9789;SDS011;4934;50.852;8.098;2022-09-09T01:29:59;5.70;;;1.88;;
9789;SDS011;4934;50.852;8.098;2022-09-09T01:32:38;3.97;;;1.80;;
9789;SDS011;4934;50.852;8.098;2022-09-09T01:38:09;3.47;;;1.50;;
9789;SDS011;4934;50.852;8.098;2022-09-09T01:40:35;3.90;;;1.60;;
9789;SDS011;4934;50.852;8.098;2022-09-09T01:43:01;5.20;;;1.65;;
9789;SDS011;4934;50.852;8.098;2022-09-09T01:45:28;4.57;;;1.77;;
9789;SDS011;4934;50.852;8.098;2022-09-09T01:47:54;4.80;;;1.73;;
9789;SDS011;4934;50.852;8.098;2022-09-09T01:50:21;3.33;;;1.52;;
9789;SDS011;4934;50.852;8.098;2022-09-09T01:52:48;9.15;;;2.25;;
9789;SDS011;4934;50.852;8.098;2022-09-09T01:55:16;4.47;;;1.58;;
9789;SDS011;4934;50.852;8.098;2022-09-09T02:00:41;4.97;;;2.08;;
9789;SDS011;4934;50.852;8.098;2022-09-09T02:03:20;4.05;;;1.83;;
9789;SDS011;4934;50.852;8.098;2022-09-09T02:06:14;6.97;;;2.30;;
9789;SDS011;4934;50.852;8.098;2022-09-09T02:08:45;4.63;;;2.10;;
9789;SDS011;4934;50.852;8.098;2022-09-09T02:11:23;2.75;;;1.77;;
9789;SDS011;4934;50.852;8.098;2022-09-09T02:13:51;6.50;;;1.77;;
9789;SDS011;4934;50.852;8.098;2022-09-09T02:16:23;2.67;;;1.38;;
9789;SDS011;4934;50.852;8.098;2022-09-09T02:21:20;4.78;;;2.03;;
9789;SDS011;4934;50.852;8.098;2022-09-09T02:23:47;4.78;;;1.63;;
9789;SDS011;4934;50.852;8.098;2022-09-09T02:26:17;4.90;;;1.65;;
9789;SDS011;4934;50.852;8.098;2022-09-09T02:28:47;5.78;;;2.40;;
9789;SDS011;4934;50.852;8.098;2022-09-09T02:31:16;5.57;;;1.70;;
9789;SDS011;4934;50.852;8.098;2022-09-09T02:36:12;3.38;;;1.90;;
9789;SDS011;4934;50.852;8.098;2022-09-09T02:38:45;9.18;;;2.30;;
9789;SDS011;4934;50.852;8.098;2022-09-09T02:41:23;3.35;;;1.60;;
9789;SDS011;4934;50.852;8.098;2022-09-09T02:43:54;3.83;;;1.73;;
9789;SDS011;4934;50.852;8.098;2022-09-09T02:49:26;5.75;;;1.90;;
9789;SDS011;4934;50.852;8.098;2022-09-09T02:52:06;6.47;;;2.05;;
9789;SDS011;4934;50.852;8.098;2022-09-09T02:54:37;4.93;;;2.10;;
9789;SDS011;4934;50.852;8.098;2022-09-09T02:57:23;3.72;;;1.88;;
9789;SDS011;4934;50.852;8.098;2022-09-09T02:59:52;4.20;;;1.60;;
9789;SDS011;4934;50.852;8.098;2022-09-09T03:02:21;6.07;;;2.13;;
9789;SDS011;4934;50.852;8.098;2022-09-09T03:04:47;7.22;;;2.20;;
9789;SDS011;4934;50.852;8.098;2022-09-09T03:07:16;4.20;;;1.85;;
9789;SDS011;4934;50.852;8.098;2022-09-09T03:09:43;4.78;;;2.25;;
9789;SDS011;4934;50.852;8.098;2022-09-09T03:12:09;3.30;;;2.05;;
9789;SDS011;4934;50.852;8.098;2022-09-09T03:14:36;3.88;;;2.00;;
9789;SDS011;4934;50.852;8.098;2022-09-09T03:17:03;5.53;;;1.80;;
9789;SDS011;4934;50.852;8.098;2022-09-09T03:19:29;6.50;;;2.10;;
9789;SDS011;4934;50.852;8.098;2022-09-09T03:21:56;5.07;;;2.10;;
9789;SDS011;4934;50.852;8.098;2022-09-09T03:24:25;5.68;;;2.20;;
9789;SDS011;4934;50.852;8.098;2022-09-09T03:26:50;10.10;;;2.58;;
9789;SDS011;4934;50.852;8.098;2022-09-09T03:29:18;13.18;;;2.67;;
9789;SDS011;4934;50.852;8.098;2022-09-09T03:31:44;5.13;;;2.30;;
9789;SDS011;4934;50.852;8.098;2022-09-09T03:34:10;6.75;;;2.45;;
9789;SDS011;4934;50.852;8.098;2022-09-09T03:36:40;10.40;;;2.70;;
9789;SDS011;4934;50.852;8.098;2022-09-09T03:39:06;12.15;;;2.20;;
9789;SDS011;4934;50.852;8.098;2022-09-09T03:41:33;4.38;;;2.50;;
9789;SDS011;4934;50.852;8.098;2022-09-09T03:43:59;11.43;;;3.00;;
9789;SDS011;4934;50.852;8.098;2022-09-09T03:46:25;8.43;;;2.25;;
9789;SDS011;4934;50.852;8.098;2022-09-09T03:48:51;10.18;;;2.65;;
9789;SDS011;4934;50.852;8.098;2022-09-09T03:53:46;15.13;;;2.50;;
9789;SDS011;4934;50.852;8.098;2022-09-09T03:56:12;7.57;;;2.72;;
9789;SDS011;4934;50.852;8.098;2022-09-09T03:58:38;7.82;;;2.22;;
9789;SDS011;4934;50.852;8.098;2022-09-09T04:01:14;7.97;;;2.53;;
9789;SDS011;4934;50.852;8.098;2022-09-09T04:03:41;9.35;;;2.10;;
9789;SDS011;4934;50.852;8.098;2022-09-09T04:06:08;6.40;;;2.30;;
9789;SDS011;4934;50.852;8.098;2022-09-09T04:08:35;5.93;;;2.42;;
9789;SDS011;4934;50.852;8.098;2022-09-09T04:11:03;15.02;;;2.85;;
9789;SDS011;4934;50.852;8.098;2022-09-09T04:13:31;7.38;;;3.45;;
9789;SDS011;4934;50.852;8.098;2022-09-09T04:16:02;9.60;;;2.30;;
9789;SDS011;4934;50.852;8.098;2022-09-09T04:18:28;8.70;;;2.15;;
9789;SDS011;4934;50.852;8.098;2022-09-09T04:20:55;8.43;;;2.22;;
9789;SDS011;4934;50.852;8.098;2022-09-09T04:25:51;7.22;;;2.08;;
9789;SDS011;4934;50.852;8.098;2022-09-09T04:28:18;7.75;;;2.60;;
9789;SDS011;4934;50.852;8.098;2022-09-09T04:30:45;6.05;;;2.75;;
9789;SDS011;4934;50.852;8.098;2022-09-09T04:33:11;10.40;;;2.40;;
9789;SDS011;4934;50.852;8.098;2022-09-09T04:35:38;6.82;;;2.20;;
9789;SDS011;4934;50.852;8.098;2022-09-09T04:38:04;7.22;;;1.92;;
9789;SDS011;4934;50.852;8.098;2022-09-09T04:40:33;13.00;;;2.85;;
9789;SDS011;4934;50.852;8.098;2022-09-09T04:43:00;8.55;;;2.40;;
9789;SDS011;4934;50.852;8.098;2022-09-09T04:45:28;8.73;;;2.10;;
9789;SDS011;4934;50.852;8.098;2022-09-09T04:47:53;3.25;;;1.67;;
9789;SDS011;4934;50.852;8.098;2022-09-09T04:50:20;9.15;;;2.20;;
9789;SDS011;4934;50.852;8.098;2022-09-09T04:52:45;5.78;;;1.92;;
9789;SDS011;4934;50.852;8.098;2022-09-09T04:55:11;8.93;;;2.22;;
9789;SDS011;4934;50.852;8.098;2022-09-09T04:57:38;5.65;;;1.70;;
9789;SDS011;4934;50.852;8.098;2022-09-09T05:00:04;8.75;;;2.35;;
9789;SDS011;4934;50.852;8.098;2022-09-09T05:02:30;7.45;;;1.90;;
9789;SDS011;4934;50.852;8.098;2022-09-09T05:04:57;10.13;;;2.17;;
9789;SDS011;4934;50.852;8.098;2022-09-09T05:07:23;6.97;;;2.10;;
9789;SDS011;4934;50.852;8.098;2022-09-09T05:09:51;8.65;;;2.17;;
9789;SDS011;4934;50.852;8.098;2022-09-09T05:12:16;7.07;;;2.08;;
9789;SDS011;4934;50.852;8.098;2022-09-09T05:14:43;7.20;;;2.17;;
9789;SDS011;4934;50.852;8.098;2022-09-09T05:17:08;4.03;;;1.85;;
9789;SDS011;4934;50.852;8.098;2022-09-09T05:19:34;5.00;;;1.60;;
9789;SDS011;4934;50.852;8.098;2022-09-09T05:22:00;10.25;;;1.98;;
9789;SDS011;4934;50.852;8.098;2022-09-09T05:24:29;5.70;;;1.90;;
9789;SDS011;4934;50.852;8.098;2022-09-09T05:26:58;5.95;;;3.75;;
9789;SDS011;4934;50.852;8.098;2022-09-09T05:29:24;4.72;;;1.90;;
9789;SDS011;4934;50.852;8.098;2022-09-09T05:31:51;4.53;;;1.85;;
9789;SDS011;4934;50.852;8.098;2022-09-09T05:34:17;11.32;;;2.72;;
9789;SDS011;4934;50.852;8.098;2022-09-09T05:36:42;8.32;;;1.80;;
9789;SDS011;4934;50.852;8.098;2022-09-09T05:39:08;6.28;;;2.25;;
9789;SDS011;4934;50.852;8.098;2022-09-09T05:41:33;10.38;;;2.03;;
9789;SDS011;4934;50.852;8.098;2022-09-09T05:44:01;6.82;;;1.70;;
9789;SDS011;4934;50.852;8.098;2022-09-09T05:46:26;6.35;;;2.60;;
9789;SDS011;4934;50.852;8.098;2022-09-09T05:48:52;6.85;;;3.10;;
9789;SDS011;4934;50.852;8.098;2022-09-09T05:51:19;6.90;;;1.77;;
9789;SDS011;4934;50.852;8.098;2022-09-09T05:53:47;3.75;;;2.03;;
9789;SDS011;4934;50.852;8.098;2022-09-09T05:56:17;7.32;;;2.55;;
9789;SDS011;4934;50.852;8.098;2022-09-09T05:58:44;6.03;;;2.20;;
9789;SDS011;4934;50.852;8.098;2022-09-09T06:01:22;9.70;;;2.72;;
9789;SDS011;4934;50.852;8.098;2022-09-09T06:03:50;8.23;;;2.53;;
9789;SDS011;4934;50.852;8.098;2022-09-09T06:06:17;11.00;;;2.55;;
9789;SDS011;4934;50.852;8.098;2022-09-09T06:08:50;5.30;;;2.38;;
9789;SDS011;4934;50.852;8.098;2022-09-09T06:11:17;9.63;;;2.55;;
9789;SDS011;4934;50.852;8.098;2022-09-09T06:13:45;11.35;;;2.40;;
9789;SDS011;4934;50.852;8.098;2022-09-09T06:16:14;8.32;;;2.55;;
9789;SDS011;4934;50.852;8.098;2022-09-09T06:18:42;6.75;;;2.35;;
9789;SDS011;4934;50.852;8.098;2022-09-09T06:21:09;6.78;;;2.33;;
9789;SDS011;4934;50.852;8.098;2022-09-09T06:23:47;9.05;;;2.42;;
9789;SDS011;4934;50.852;8.098;2022-09-09T06:26:14;7.72;;;1.63;;
9789;SDS011;4934;50.852;8.098;2022-09-09T06:28:42;6.82;;;2.05;;
9789;SDS011;4934;50.852;8.098;2022-09-09T06:31:11;6.15;;;2.10;;
9789;SDS011;4934;50.852;8.098;2022-09-09T06:33:38;5.78;;;1.88;;
9789;SDS011;4934;50.852;8.098;2022-09-09T06:36:10;7.13;;;3.30;;
9789;SDS011;4934;50.852;8.098;2022-09-09T06:38:37;4.95;;;2.42;;
9789;SDS011;4934;50.852;8.098;2022-09-09T06:41:04;6.03;;;1.67;;
9789;SDS011;4934;50.852;8.098;2022-09-09T06:43:30;6.20;;;2.13;;
9789;SDS011;4934;50.852;8.098;2022-09-09T06:48:34;5.07;;;2.10;;
9789;SDS011;4934;50.852;8.098;2022-09-09T06:51:02;3.67;;;1.33;;
9789;SDS011;4934;50.852;8.098;2022-09-09T06:53:32;3.10;;;1.48;;
9789;SDS011;4934;50.852;8.098;2022-09-09T06:56:02;3.75;;;1.27;;
9789;SDS011;4934;50.852;8.098;2022-09-09T06:58:48;5.85;;;1.52;;
9789;SDS011;4934;50.852;8.098;2022-09-09T07:01:16;6.07;;;1.85;;
9789;SDS011;4934;50.852;8.098;2022-09-09T07:03:45;4.90;;;1.45;;
9789;SDS011;4934;50.852;8.098;2022-09-09T07:06:18;7.97;;;1.52;;
9789;SDS011;4934;50.852;8.098;2022-09-09T07:08:49;4.00;;;2.20;;
9789;SDS011;4934;50.852;8.098;2022-09-09T07:11:23;4.25;;;1.50;;
9789;SDS011;4934;50.852;8.098;2022-09-09T07:13:53;4.32;;;1.70;;
9789;SDS011;4934;50.852;8.098;2022-09-09T07:16:21;10.98;;;1.80;;
9789;SDS011;4934;50.852;8.098;2022-09-09T07:18:50;5.32;;;1.40;;
9789;SDS011;4934;50.852;8.098;2022-09-09T07:21:16;6.60;;;1.50;;
9789;SDS011;4934;50.852;8.098;2022-09-09T07:23:43;8.30;;;1.55;;
9789;SDS011;4934;50.852;8.098;2022-09-09T07:26:12;5.85;;;1.30;;
9789;SDS011;4934;50.852;8.098;2022-09-09T07:28:40;5.47;;;2.25;;
9789;SDS011;4934;50.852;8.098;2022-09-09T07:31:06;4.45;;;1.27;;
9789;SDS011;4934;50.852;8.098;2022-09-09T07:33:38;6.90;;;1.40;;
9789;SDS011;4934;50.852;8.098;2022-09-09T07:36:14;6.95;;;1.40;;
9789;SDS011;4934;50.852;8.098;2022-09-09T07:38:41;6.25;;;1.40;;
9789;SDS011;4934;50.852;8.098;2022-09-09T07:41:11;7.38;;;2.00;;
9789;SDS011;4934;50.852;8.098;2022-09-09T07:43:39;7.90;;;1.30;;
9789;SDS011;4934;50.852;8.098;2022-09-09T07:46:06;7.13;;;1.88;;
9789;SDS011;4934;50.852;8.098;2022-09-09T07:48:32;7.95;;;1.40;;
9789;SDS011;4934;50.852;8.098;2022-09-09T07:51:14;6.90;;;1.38;;
9789;SDS011;4934;50.852;8.098;2022-09-09T07:53:42;7.28;;;1.20;;
9789;SDS011;4934;50.852;8.098;2022-09-09T07:56:10;5.20;;;1.65;;
9789;SDS011;4934;50.852;8.098;2022-09-09T07:58:37;8.52;;;1.95;;
9789;SDS011;4934;50.852;8.098;2022-09-09T08:01:11;5.30;;;1.20;;
9789;SDS011;4934;50.852;8.098;2022-09-09T08:03:43;9.25;;;1.10;;
9789;SDS011;4934;50.852;8.098;2022-09-09T08:06:12;6.57;;;1.90;;
9789;SDS011;4934;50.852;8.098;2022-09-09T08:08:39;7.95;;;1.17;;
9789;SDS011;4934;50.852;8.098;2022-09-09T08:11:13;6.65;;;1.38;;
9789;SDS011;4934;50.852;8.098;2022-09-09T08:13:40;8.60;;;1.83;;
9789;SDS011;4934;50.852;8.098;2022-09-09T08:16:11;7.05;;;1.08;;
9789;SDS011;4934;50.852;8.098;2022-09-09T08:18:42;14.32;;;1.20;;
9789;SDS011;4934;50.852;8.098;2022-09-09T08:21:09;8.68;;;1.25;;
9789;SDS011;4934;50.852;8.098;2022-09-09T08:23:38;5.90;;;1.02;;
9789;SDS011;4934;50.852;8.098;2022-09-09T08:26:09;7.20;;;1.02;;
9789;SDS011;4934;50.852;8.098;2022-09-09T08:28:37;4.88;;;1.23;;
9789;SDS011;4934;50.852;8.098;2022-09-09T08:31:14;5.65;;;1.17;;
9789;SDS011;4934;50.852;8.098;2022-09-09T08:33:42;8.07;;;1.60;;
9789;SDS011;4934;50.852;8.098;2022-09-09T08:36:12;5.60;;;1.00;;
9789;SDS011;4934;50.852;8.098;2022-09-09T08:38:42;7.88;;;1.50;;
9789;SDS011;4934;50.852;8.098;2022-09-09T08:43:43;9.75;;;1.40;;
9789;SDS011;4934;50.852;8.098;2022-09-09T08:46:24;7.15;;;1.35;;
9789;SDS011;4934;50.852;8.098;2022-09-09T08:51:53;5.90;;;1.10;;
9789;SDS011;4934;50.852;8.098;2022-09-09T08:54:21;4.10;;;1.10;;
9789;SDS011;4934;50.852;8.098;2022-09-09T08:56:47;3.47;;;1.02;;
9789;SDS011;4934;50.852;8.098;2022-09-09T08:59:14;8.65;;;2.15;;
9789;SDS011;4934;50.852;8.098;2022-09-09T09:04:51;3.05;;;0.80;;
9789;SDS011;4934;50.852;8.098;2022-09-09T09:10:50;7.20;;;2.45;;
9789;SDS011;4934;50.852;8.098;2022-09-09T09:15:53;1.85;;;1.00;;
9789;SDS011;4934;50.852;8.098;2022-09-09T09:18:25;8.20;;;1.92;;
9789;SDS011;4934;50.852;8.098;2022-09-09T09:20:54;5.03;;;0.98;;
9789;SDS011;4934;50.852;8.098;2022-09-09T09:23:48;2.95;;;0.90;;
9789;SDS011;4934;50.852;8.098;2022-09-09T09:26:25;6.15;;;1.10;;
9789;SDS011;4934;50.852;8.098;2022-09-09T09:29:00;8.65;;;1.20;;
9789;SDS011;4934;50.852;8.098;2022-09-09T09:31:56;7.10;;;0.90;;
9789;SDS011;4934;50.852;8.098;2022-09-09T09:34:27;8.52;;;1.08;;
9789;SDS011;4934;50.852;8.098;2022-09-09T09:36:57;4.85;;;1.00;;
9789;SDS011;4934;50.852;8.098;2022-09-09T09:39:37;4.60;;;1.40;;
9789;SDS011;4934;50.852;8.098;2022-09-09T09:42:09;6.85;;;1.25;;
9789;SDS011;4934;50.852;8.098;2022-09-09T09:44:39;3.30;;;1.02;;
9789;SDS011;4934;50.852;8.098;2022-09-09T09:49:50;3.83;;;1.05;;
9789;SDS011;4934;50.852;8.098;2022-09-09T09:52:24;5.18;;;1.10;;
9789;SDS011;4934;50.852;8.098;2022-09-09T09:54:52;7.82;;;1.02;;
9789;SDS011;4934;50.852;8.098;2022-09-09T09:57:18;4.28;;;0.80;;
9789;SDS011;4934;50.852;8.098;2022-09-09T10:00:00;4.32;;;0.90;;
9789;SDS011;4934;50.852;8.098;2022-09-09T10:02:31;6.22;;;1.13;;
9789;SDS011;4934;50.852;8.098;2022-09-09T10:05:04;5.20;;;0.88;;
9789;SDS011;4934;50.852;8.098;2022-09-09T10:07:45;8.90;;;1.23;;
9789;SDS011;4934;50.852;8.098;2022-09-09T10:10:59;7.90;;;1.17;;
9789;SDS011;4934;50.852;8.098;2022-09-09T10:13:11;4.53;;;1.00;;
9789;SDS011;4934;50.852;8.098;2022-09-09T10:16:08;4.20;;;1.00;;
9789;SDS011;4934;50.852;8.098;2022-09-09T10:18:48;7.43;;;1.17;;
9789;SDS011;4934;50.852;8.098;2022-09-09T10:26:49;10.43;;;0.90;;
9789;SDS011;4934;50.852;8.098;2022-09-09T10:35:19;5.78;;;0.90;;
9789;SDS011;4934;50.852;8.098;2022-09-09T10:54:09;2.63;;;0.60;;
9789;SDS011;4934;50.852;8.098;2022-09-09T10:56:39;6.32;;;0.77;;
9789;SDS011;4934;50.852;8.098;2022-09-09T10:59:14;3.90;;;0.60;;
9789;SDS011;4934;50.852;8.098;2022-09-09T11:04:45;5.65;;;0.70;;
9789;SDS011;4934;50.852;8.098;2022-09-09T11:07:19;6.18;;;1.23;;
9789;SDS011;4934;50.852;8.098;2022-09-09T11:09:52;3.40;;;0.93;;
9789;SDS011;4934;50.852;8.098;2022-09-09T11:12:25;5.90;;;1.00;;
9789;SDS011;4934;50.852;8.098;2022-09-09T11:14:57;5.65;;;1.20;;
9789;SDS011;4934;50.852;8.098;2022-09-09T11:17:31;3.25;;;0.70;;
9789;SDS011;4934;50.852;8.098;2022-09-09T11:20:05;4.65;;;0.65;;
9789;SDS011;4934;50.852;8.098;2022-09-09T11:42:20;4.75;;;0.90;;
9789;SDS011;4934;50.852;8.098;2022-09-09T11:44:50;5.05;;;1.10;;
9789;SDS011;4934;50.852;8.098;2022-09-09T11:47:20;5.60;;;0.93;;
9789;SDS011;4934;50.852;8.098;2022-09-09T11:49:54;6.45;;;1.05;;
9789;SDS011;4934;50.852;8.098;2022-09-09T11:52:24;7.45;;;0.90;;
9789;SDS011;4934;50.852;8.098;2022-09-09T11:55:08;3.10;;;1.33;;
9789;SDS011;4934;50.852;8.098;2022-09-09T11:57:37;4.45;;;0.65;;
9789;SDS011;4934;50.852;8.098;2022-09-09T12:00:04;4.68;;;0.80;;
9789;SDS011;4934;50.852;8.098;2022-09-09T12:02:30;5.60;;;0.90;;
9789;SDS011;4934;50.852;8.098;2022-09-09T12:10:52;5.45;;;0.90;;
9789;SDS011;4934;50.852;8.098;2022-09-09T12:13:23;4.80;;;1.40;;
9789;SDS011;4934;50.852;8.098;2022-09-09T12:15:51;5.70;;;0.77;;
9789;SDS011;4934;50.852;8.098;2022-09-09T12:18:31;3.03;;;0.70;;
9789;SDS011;4934;50.852;8.098;2022-09-09T12:26:57;6.47;;;0.85;;
9789;SDS011;4934;50.852;8.098;2022-09-09T12:29:36;7.00;;;0.88;;
9789;SDS011;4934;50.852;8.098;2022-09-09T12:32:20;7.93;;;0.90;;
9789;SDS011;4934;50.852;8.098;2022-09-09T12:34:53;4.82;;;0.63;;
9789;SDS011;4934;50.852;8.098;2022-09-09T12:37:36;2.22;;;0.50;;
9789;SDS011;4934;50.852;8.098;2022-09-09T12:40:28;4.63;;;0.68;;
9789;SDS011;4934;50.852;8.098;2022-09-09T12:42:53;4.33;;;0.90;;
9789;SDS011;4934;50.852;8.098;2022-09-09T12:45:29;4.20;;;0.77;;
9789;SDS011;4934;50.852;8.098;2022-09-09T12:48:01;3.63;;;0.57;;
9789;SDS011;4934;50.852;8.098;2022-09-09T12:50:32;5.18;;;1.00;;
9789;SDS011;4934;50.852;8.098;2022-09-09T12:53:10;6.38;;;0.60;;
9789;SDS011;4934;50.852;8.098;2022-09-09T12:55:48;3.80;;;0.73;;
9789;SDS011;4934;50.852;8.098;2022-09-09T12:58:17;5.82;;;0.70;;
9789;SDS011;4934;50.852;8.098;2022-09-09T13:00:50;4.30;;;0.60;;
9789;SDS011;4934;50.852;8.098;2022-09-09T13:03:18;2.45;;;0.45;;
9789;SDS011;4934;50.852;8.098;2022-09-09T13:05:46;1.90;;;0.63;;
9789;SDS011;4934;50.852;8.098;2022-09-09T13:08:13;6.40;;;1.00;;
9789;SDS011;4934;50.852;8.098;2022-09-09T13:13:31;3.88;;;0.50;;
9789;SDS011;4934;50.852;8.098;2022-09-09T13:16:02;4.35;;;1.10;;
9789;SDS011;4934;50.852;8.098;2022-09-09T13:18:31;2.08;;;0.73;;
9789;SDS011;4934;50.852;8.098;2022-09-09T13:21:00;1.85;;;0.73;;
9789;SDS011;4934;50.852;8.098;2022-09-09T13:23:30;9.82;;;1.23;;
9789;SDS011;4934;50.852;8.098;2022-09-09T13:26:00;4.78;;;0.77;;
9789;SDS011;4934;50.852;8.098;2022-09-09T13:28:33;3.90;;;0.90;;
9789;SDS011;4934;50.852;8.098;2022-09-09T13:31:03;2.17;;;0.47;;
9789;SDS011;4934;50.852;8.098;2022-09-09T13:33:35;3.22;;;0.85;;
9789;SDS011;4934;50.852;8.098;2022-09-09T13:36:06;2.67;;;0.70;;
9789;SDS011;4934;50.852;8.098;2022-09-09T13:38:53;3.78;;;0.50;;
9789;SDS011;4934;50.852;8.098;2022-09-09T13:41:21;1.80;;;0.50;;
9789;SDS011;4934;50.852;8.098;2022-09-09T13:43:53;3.53;;;0.88;;
9789;SDS011;4934;50.852;8.098;2022-09-09T13:51:39;3.00;;;0.60;;
9789;SDS011;4934;50.852;8.098;2022-09-09T13:54:14;2.38;;;0.50;;
9789;SDS011;4934;50.852;8.098;2022-09-09T13:56:42;4.88;;;1.27;;
9789;SDS011;4934;50.852;8.098;2022-09-09T13:59:11;3.08;;;0.57;;
9789;SDS011;4934;50.852;8.098;2022-09-09T14:01:43;3.13;;;0.80;;
9789;SDS011;4934;50.852;8.098;2022-09-09T14:04:09;3.88;;;0.60;;
9789;SDS011;4934;50.852;8.098;2022-09-09T14:06:35;2.13;;;0.45;;
9789;SDS011;4934;50.852;8.098;2022-09-09T14:09:03;3.17;;;0.77;;
9789;SDS011;4934;50.852;8.098;2022-09-09T14:11:29;3.70;;;0.60;;
9789;SDS011;4934;50.852;8.098;2022-09-09T14:13:55;2.25;;;0.70;;
9789;SDS011;4934;50.852;8.098;2022-09-09T14:16:21;4.68;;;0.60;;
9789;SDS011;4934;50.852;8.098;2022-09-09T14:18:46;3.83;;;0.57;;
9789;SDS011;4934;50.852;8.098;2022-09-09T14:21:13;3.42;;;0.60;;
9789;SDS011;4934;50.852;8.098;2022-09-09T14:23:39;3.08;;;0.40;;
9789;SDS011;4934;50.852;8.098;2022-09-09T14:26:05;3.78;;;0.55;;
9789;SDS011;4934;50.852;8.098;2022-09-09T14:28:31;3.42;;;0.60;;
9789;SDS011;4934;50.852;8.098;2022-09-09T14:31:03;1.33;;;0.60;;
9789;SDS011;4934;50.852;8.098;2022-09-09T14:33:29;3.00;;;0.60;;
9789;SDS011;4934;50.852;8.098;2022-09-09T14:35:58;2.05;;;0.50;;
9789;SDS011;4934;50.852;8.098;2022-09-09T14:38:28;3.45;;;1.00;;
9789;SDS011;4934;50.852;8.098;2022-09-09T14:40:55;6.47;;;0.73;;
9789;SDS011;4934;50.852;8.098;2022-09-09T14:43:21;3.63;;;0.45;;
9789;SDS011;4934;50.852;8.098;2022-09-09T14:45:46;2.45;;;0.63;;
9789;SDS011;4934;50.852;8.098;2022-09-09T14:48:13;2.40;;;0.57;;
9789;SDS011;4934;50.852;8.098;2022-09-09T14:50:40;5.03;;;1.08;;
9789;SDS011;4934;50.852;8.098;2022-09-09T14:53:06;5.13;;;1.05;;
9789;SDS011;4934;50.852;8.098;2022-09-09T14:55:33;1.65;;;0.50;;
9789;SDS011;4934;50.852;8.098;2022-09-09T14:57:59;7.20;;;0.77;;
9789;SDS011;4934;50.852;8.098;2022-09-09T15:00:25;4.93;;;0.70;;
9789;SDS011;4934;50.852;8.098;2022-09-09T15:02:54;6.45;;;1.23;;
9789;SDS011;4934;50.852;8.098;2022-09-09T15:05:20;3.55;;;0.77;;
9789;SDS011;4934;50.852;8.098;2022-09-09T15:07:46;3.05;;;0.85;;
9789;SDS011;4934;50.852;8.098;2022-09-09T15:10:13;3.75;;;0.80;;
9789;SDS011;4934;50.852;8.098;2022-09-09T15:12:39;1.58;;;0.73;;
9789;SDS011;4934;50.852;8.098;2022-09-09T15:15:06;5.22;;;0.85;;
9789;SDS011;4934;50.852;8.098;2022-09-09T15:17:33;5.90;;;0.80;;
9789;SDS011;4934;50.852;8.098;2022-09-09T15:19:59;5.68;;;1.02;;
9789;SDS011;4934;50.852;8.098;2022-09-09T15:22:24;5.97;;;1.05;;
9789;SDS011;4934;50.852;8.098;2022-09-09T15:24:50;8.05;;;1.00;;
9789;SDS011;4934;50.852;8.098;2022-09-09T15:27:16;4.05;;;1.10;;
9789;SDS011;4934;50.852;8.098;2022-09-09T15:29:43;6.00;;;1.20;;
9789;SDS011;4934;50.852;8.098;2022-09-09T15:32:09;6.35;;;0.85;;
9789;SDS011;4934;50.852;8.098;2022-09-09T15:34:35;1.52;;;0.70;;
9789;SDS011;4934;50.852;8.098;2022-09-09T15:37:00;1.95;;;0.90;;
9789;SDS011;4934;50.852;8.098;2022-09-09T15:39:26;1.90;;;0.75;;
9789;SDS011;4934;50.852;8.098;2022-09-09T15:41:51;3.40;;;1.00;;
9789;SDS011;4934;50.852;8.098;2022-09-09T15:44:17;7.13;;;0.77;;
9789;SDS011;4934;50.852;8.098;2022-09-09T15:49:16;4.75;;;1.20;;
9789;SDS011;4934;50.852;8.098;2022-09-09T15:51:45;3.40;;;1.30;;
9789;SDS011;4934;50.852;8.098;2022-09-09T15:54:15;5.47;;;0.98;;
9789;SDS011;4934;50.852;8.098;2022-09-09T15:56:43;4.35;;;0.77;;
9789;SDS011;4934;50.852;8.098;2022-09-09T15:59:10;2.53;;;0.80;;
9789;SDS011;4934;50.852;8.098;2022-09-09T16:01:36;2.47;;;1.27;;
9789;SDS011;4934;50.852;8.098;2022-09-09T16:04:04;4.50;;;0.80;;
9789;SDS011;4934;50.852;8.098;2022-09-09T16:06:30;2.88;;;0.88;;
9789;SDS011;4934;50.852;8.098;2022-09-09T16:08:57;2.08;;;0.70;;
9789;SDS011;4934;50.852;8.098;2022-09-09T16:11:27;2.00;;;0.70;;
9789;SDS011;4934;50.852;8.098;2022-09-09T16:16:21;3.03;;;0.73;;
9789;SDS011;4934;50.852;8.098;2022-09-09T16:18:53;4.85;;;1.13;;
9789;SDS011;4934;50.852;8.098;2022-09-09T16:21:24;3.55;;;0.82;;
9789;SDS011;4934;50.852;8.098;2022-09-09T16:23:54;3.70;;;0.90;;
9789;SDS011;4934;50.852;8.098;2022-09-09T16:26:20;2.10;;;0.95;;
9789;SDS011;4934;50.852;8.098;2022-09-09T16:28:47;4.25;;;1.10;;
9789;SDS011;4934;50.852;8.098;2022-09-09T16:31:14;2.15;;;0.65;;
9789;SDS011;4934;50.852;8.098;2022-09-09T16:36:08;3.50;;;0.50;;
9789;SDS011;4934;50.852;8.098;2022-09-09T16:38:35;4.03;;;0.90;;
9789;SDS011;4934;50.852;8.098;2022-09-09T16:41:01;3.55;;;0.60;;
9789;SDS011;4934;50.852;8.098;2022-09-09T16:43:30;1.08;;;0.60;;
9789;SDS011;4934;50.852;8.098;2022-09-09T16:45:55;2.47;;;1.27;;
9789;SDS011;4934;50.852;8.098;2022-09-09T16:48:21;4.28;;;0.57;;
9789;SDS011;4934;50.852;8.098;2022-09-09T16:50:46;1.27;;;0.55;;
9789;SDS011;4934;50.852;8.098;2022-09-09T16:53:13;2.13;;;0.73;;
9789;SDS011;4934;50.852;8.098;2022-09-09T16:55:39;1.42;;;0.80;;
9789;SDS011;4934;50.852;8.098;2022-09-09T16:58:06;1.15;;;0.40;;
9789;SDS011;4934;50.852;8.098;2022-09-09T17:00:33;2.60;;;0.50;;
9789;SDS011;4934;50.852;8.098;2022-09-09T17:02:59;2.08;;;0.40;;
9789;SDS011;4934;50.852;8.098;2022-09-09T17:05:25;0.30;;;0.30;;
9789;SDS011;4934;50.852;8.098;2022-09-09T17:07:51;1.08;;;0.38;;
9789;SDS011;4934;50.852;8.098;2022-09-09T17:10:16;2.38;;;0.60;;
9789;SDS011;4934;50.852;8.098;2022-09-09T17:12:42;0.77;;;0.50;;
9789;SDS011;4934;50.852;8.098;2022-09-09T17:15:08;1.00;;;0.40;;
9789;SDS011;4934;50.852;8.098;2022-09-09T17:17:35;2.53;;;0.47;;
9789;SDS011;4934;50.852;8.098;2022-09-09T17:20:00;1.23;;;0.40;;
9789;SDS011;4934;50.852;8.098;2022-09-09T17:22:27;0.90;;;0.50;;
9789;SDS011;4934;50.852;8.098;2022-09-09T17:24:53;1.27;;;0.40;;
9789;SDS011;4934;50.852;8.098;2022-09-09T17:27:19;4.55;;;0.50;;
9789;SDS011;4934;50.852;8.098;2022-09-09T17:29:45;1.90;;;0.47;;
9789;SDS011;4934;50.852;8.098;2022-09-09T17:32:11;1.88;;;0.50;;
9789;SDS011;4934;50.852;8.098;2022-09-09T17:34:37;4.32;;;0.70;;
9789;SDS011;4934;50.852;8.098;2022-09-09T17:37:03;2.17;;;0.63;;
9789;SDS011;4934;50.852;8.098;2022-09-09T17:39:30;8.57;;;3.50;;
9789;SDS011;4934;50.852;8.098;2022-09-09T17:41:55;6.35;;;1.83;;
9789;SDS011;4934;50.852;8.098;2022-09-09T17:44:21;3.08;;;1.00;;
9789;SDS011;4934;50.852;8.098;2022-09-09T17:46:46;3.38;;;1.35;;
9789;SDS011;4934;50.852;8.098;2022-09-09T17:49:14;2.63;;;0.90;;
9789;SDS011;4934;50.852;8.098;2022-09-09T17:51:42;4.50;;;1.00;;
9789;SDS011;4934;50.852;8.098;2022-09-09T17:54:10;1.55;;;0.88;;
9789;SDS011;4934;50.852;8.098;2022-09-09T17:56:37;1.33;;;0.93;;
9789;SDS011;4934;50.852;8.098;2022-09-09T17:59:06;2.55;;;1.35;;
9789;SDS011;4934;50.852;8.098;2022-09-09T18:04:00;3.17;;;0.88;;
9789;SDS011;4934;50.852;8.098;2022-09-09T18:06:30;4.93;;;0.80;;